Отчёт УТП Анапа 29.02.2020

29 Февраля 2020 года в 17-19 UTC в аэропорту Анапы (URKA) прошли учебно-тренировочные полеты в сети IVAO.

В работе был Анапа Руление, Анапа Круг и Ростов Контроль.

Погода во время УТП:

METAR URKA 291800Z 05005MPS 9999 BKN035 05/02 Q1014 R04/010065
           NOSIG RMK QFE757/1009=

Движение в воздухе было умеренным, 3 борта.

Все курсанты справились со своими задачами, УТП прошли без происшествий. После полётов курсантов ожидал разбор полётов, где каждый услышал замечания от Инструктора.